Time;durP1;ratioP1;P1;durP2;ratioP2;P2;SDS_P1;SDS_P2;PMS_P1;PMS_P2;Temp;Humidity;BMP_temperature;BMP_pressure;BME280_temperature;BME280_humidity;BME280_pressure;Samples;Min_cycle;Max_cycle;Signal;HPM_P1;HPM_P2
2024/03/15 00:00:12;;;;;;;499.80;471.60;;;10.00;99.90;;;;;;5045551;28;20669;-67
2024/03/15 00:02:39;;;;;;;500.87;473.00;;;9.90;99.90;;;;;;5047746;28;20471;-67
2024/03/15 00:05:06;;;;;;;499.10;471.53;;;9.90;99.90;;;;;;5044816;28;20454;-67
2024/03/15 00:07:33;;;;;;;496.97;469.50;;;9.80;99.90;;;;;;5054042;28;20848;-67
2024/03/15 00:10:00;;;;;;;498.37;469.37;;;9.70;99.90;;;;;;5045840;28;20446;-67
2024/03/15 00:12:27;;;;;;;490.13;462.90;;;9.70;99.90;;;;;;5053848;28;20457;-67
2024/03/15 00:14:55;;;;;;;499.97;470.60;;;9.60;99.90;;;;;;5045189;28;20455;-67
2024/03/15 00:17:22;;;;;;;504.03;475.03;;;9.50;99.90;;;;;;5046618;28;20543;-67
2024/03/15 00:19:49;;;;;;;503.90;472.00;;;9.50;99.90;;;;;;5053898;28;20450;-66
2024/03/15 00:22:15;;;;;;;505.20;474.40;;;9.40;99.90;;;;;;5054051;28;20450;-67
2024/03/15 00:24:42;;;;;;;512.70;480.90;;;9.40;99.90;;;;;;5053781;28;20455;-66
2024/03/15 00:27:09;;;;;;;512.10;479.77;;;9.40;99.90;;;;;;5053739;28;20511;-67
2024/03/15 00:29:37;;;;;;;514.70;479.97;;;9.50;99.90;;;;;;5054123;28;20446;-67
2024/03/15 00:32:05;;;;;;;522.17;486.97;;;9.50;99.90;;;;;;5045987;28;20996;-67
2024/03/15 00:34:32;;;;;;;519.27;484.17;;;9.60;99.90;;;;;;5045797;28;20502;-67
2024/03/15 00:37:01;;;;;;;516.60;482.30;;;9.70;99.90;;;;;;5053425;28;20470;-67
2024/03/15 00:39:28;;;;;;;513.57;479.90;;;9.80;99.90;;;;;;5054130;28;20451;-67
2024/03/15 00:41:55;;;;;;;516.63;484.00;;;9.90;99.90;;;;;;5053256;28;20734;-67
2024/03/15 00:44:21;;;;;;;513.53;483.33;;;10.00;99.90;;;;;;5046848;28;20474;-66
2024/03/15 00:46:47;;;;;;;505.30;475.80;;;10.00;99.90;;;;;;5053458;28;20457;-67
2024/03/15 00:49:14;;;;;;;499.87;471.53;;;10.00;99.90;;;;;;5034008;28;20454;-67
2024/03/15 00:51:41;;;;;;;497.80;469.77;;;10.00;99.90;;;;;;5049545;28;20740;-66
2024/03/15 00:54:09;;;;;;;501.00;472.90;;;10.00;99.90;;;;;;5053448;28;20474;-66
2024/03/15 00:56:36;;;;;;;494.10;465.60;;;9.90;99.90;;;;;;5053833;28;20454;-67
2024/03/15 00:59:03;;;;;;;499.90;470.57;;;9.90;99.90;;;;;;5045044;28;20446;-67
2024/03/15 01:01:30;;;;;;;494.30;465.40;;;9.90;99.90;;;;;;5053707;28;20941;-67
2024/03/15 01:03:57;;;;;;;507.90;479.10;;;9.90;99.90;;;;;;5043977;28;20471;-66
2024/03/15 01:06:24;;;;;;;502.07;474.13;;;9.90;99.90;;;;;;5046026;28;20960;-66
2024/03/15 01:08:51;;;;;;;486.77;460.97;;;10.00;99.90;;;;;;5044889;28;20461;-67
2024/03/15 01:11:18;;;;;;;495.63;468.90;;;10.00;99.90;;;;;;5037805;28;20458;-67
2024/03/15 01:13:45;;;;;;;505.70;478.20;;;10.00;99.90;;;;;;5053281;28;20470;-67
2024/03/15 01:16:12;;;;;;;499.17;471.37;;;10.00;99.90;;;;;;5045053;28;20450;-67
2024/03/15 01:18:40;;;;;;;494.73;467.73;;;10.20;99.90;;;;;;5053367;28;20486;-67
2024/03/15 01:21:07;;;;;;;489.83;463.83;;;10.20;99.90;;;;;;5042704;28;20451;-67
2024/03/15 01:23:34;;;;;;;482.17;457.07;;;10.30;99.90;;;;;;5041616;28;20475;-66
2024/03/15 01:26:01;;;;;;;474.40;449.77;;;10.30;99.90;;;;;;5043257;28;20981;-67
2024/03/15 01:28:29;;;;;;;463.50;440.97;;;10.40;99.90;;;;;;5053427;28;20451;-67
2024/03/15 01:30:57;;;;;;;467.53;445.20;;;10.40;99.90;;;;;;5044511;28;20844;-66
2024/03/15 01:33:25;;;;;;;461.37;439.77;;;10.40;99.90;;;;;;5049122;28;20474;-66
2024/03/15 01:35:51;;;;;;;456.90;434.80;;;10.40;99.90;;;;;;5047933;28;20633;-67
2024/03/15 01:38:19;;;;;;;462.17;438.90;;;10.30;99.90;;;;;;5049098;28;20884;-67
2024/03/15 01:40:46;;;;;;;466.47;442.97;;;10.20;99.90;;;;;;5056807;28;20941;-67
2024/03/15 01:43:14;;;;;;;473.97;449.87;;;10.20;99.90;;;;;;5048416;28;20470;-67
2024/03/15 01:45:42;;;;;;;478.53;454.57;;;10.10;99.90;;;;;;5056843;28;20477;-66
2024/03/15 01:48:09;;;;;;;464.33;440.87;;;10.10;99.90;;;;;;5045668;28;20454;-67
2024/03/15 01:50:36;;;;;;;478.67;454.10;;;10.10;99.90;;;;;;5051502;28;20446;-67
2024/03/15 01:53:03;;;;;;;486.10;460.20;;;10.10;99.90;;;;;;5048222;28;20474;-67
2024/03/15 01:55:32;;;;;;;497.40;470.30;;;10.00;99.90;;;;;;5056854;28;20957;-67
2024/03/15 01:57:59;;;;;;;486.87;459.43;;;10.10;99.90;;;;;;5054489;28;21031;-67
2024/03/15 02:00:26;;;;;;;477.87;451.17;;;10.10;99.90;;;;;;5049795;28;20458;-66
2024/03/15 02:02:53;;;;;;;486.50;459.50;;;10.20;99.90;;;;;;5055896;28;21025;-67
2024/03/15 02:05:20;;;;;;;486.80;460.40;;;10.30;99.90;;;;;;5056554;28;20446;-67
2024/03/15 02:07:47;;;;;;;480.70;454.90;;;10.30;99.90;;;;;;5055948;28;20462;-67
2024/03/15 02:10:14;;;;;;;485.13;458.40;;;10.20;99.90;;;;;;5056116;28;20454;-66
2024/03/15 02:12:41;;;;;;;487.33;461.20;;;10.20;99.90;;;;;;5037229;28;20853;-67
2024/03/15 02:15:08;;;;;;;485.90;460.73;;;10.30;99.90;;;;;;5037773;28;20840;-67
2024/03/15 02:17:36;;;;;;;477.33;452.73;;;10.30;99.90;;;;;;5055422;28;20478;-67
2024/03/15 02:20:06;;;;;;;472.10;448.97;;;10.40;99.90;;;;;;5056122;28;20477;-67
2024/03/15 02:22:32;;;;;;;464.70;442.80;;;10.50;99.90;;;;;;5050326;28;20451;-67
2024/03/15 02:24:59;;;;;;;454.73;434.00;;;10.50;99.90;;;;;;5043396;28;20456;-67
2024/03/15 02:27:28;;;;;;;451.83;430.83;;;10.50;99.90;;;;;;5055560;28;20450;-67
2024/03/15 02:29:55;;;;;;;436.97;417.33;;;10.50;99.90;;;;;;5055197;28;20495;-67
2024/03/15 02:32:23;;;;;;;429.73;411.47;;;10.60;99.90;;;;;;5040730;28;20558;-67
2024/03/15 02:34:51;;;;;;;417.80;399.30;;;10.60;99.10;;;;;;5049159;28;20834;-67
2024/03/15 02:37:19;;;;;;;414.00;397.10;;;10.70;97.90;;;;;;5055493;28;20466;-67
2024/03/15 02:39:46;;;;;;;381.60;366.20;;;10.80;98.00;;;;;;5048355;28;20479;-67
2024/03/15 02:42:13;;;;;;;370.10;355.90;;;10.90;98.00;;;;;;5058918;28;20451;-67
2024/03/15 02:44:40;;;;;;;339.00;326.10;;;11.10;98.10;;;;;;5058474;28;21037;-66
2024/03/15 02:47:07;;;;;;;303.10;292.00;;;11.10;98.00;;;;;;5045602;28;20455;-67
2024/03/15 02:49:35;;;;;;;283.37;272.97;;;11.30;95.10;;;;;;5050309;28;20483;-66
2024/03/15 02:52:02;;;;;;;257.57;248.57;;;11.40;91.90;;;;;;5045737;28;20453;-67
2024/03/15 02:54:29;;;;;;;237.23;228.93;;;11.40;91.50;;;;;;5049059;28;20466;-67
2024/03/15 02:56:56;;;;;;;213.80;206.20;;;11.40;91.50;;;;;;5046580;28;20450;-67
2024/03/15 02:59:24;;;;;;;184.07;177.67;;;11.40;91.50;;;;;;5055127;28;20552;-67
2024/03/15 03:01:51;;;;;;;159.73;153.83;;;11.50;91.90;;;;;;5055355;28;20454;-67
2024/03/15 03:04:19;;;;;;;144.73;139.20;;;11.50;91.60;;;;;;5047373;28;20561;-67
2024/03/15 03:06:45;;;;;;;132.67;127.80;;;11.60;91.60;;;;;;5054999;28;20454;-67
2024/03/15 03:09:13;;;;;;;114.83;110.63;;;11.60;91.60;;;;;;5055042;28;20976;-67
2024/03/15 03:11:40;;;;;;;113.30;108.40;;;11.70;90.90;;;;;;5055001;28;20450;-67
2024/03/15 03:14:06;;;;;;;104.47;100.03;;;11.60;91.50;;;;;;5044360;28;20479;-67
2024/03/15 03:16:34;;;;;;;98.77;94.57;;;11.60;91.50;;;;;;5049206;28;20446;-66
2024/03/15 03:19:02;;;;;;;98.30;94.60;;;11.50;91.50;;;;;;5045317;28;20479;-67
2024/03/15 03:21:29;;;;;;;99.10;95.20;;;11.50;91.30;;;;;;5048824;28;20484;-68
2024/03/15 03:23:57;;;;;;;92.87;89.00;;;11.50;89.20;;;;;;5053494;28;20475;-66
2024/03/15 03:26:24;;;;;;;85.03;81.63;;;11.50;88.20;;;;;;5047793;28;20446;-67
2024/03/15 03:28:51;;;;;;;81.60;77.93;;;11.70;86.30;;;;;;5046408;28;20458;-67
2024/03/15 03:31:17;;;;;;;70.40;67.23;;;11.80;85.50;;;;;;5054975;28;20460;-67
2024/03/15 03:33:44;;;;;;;63.43;60.73;;;11.70;83.70;;;;;;5054499;28;20482;-66
2024/03/15 03:36:12;;;;;;;55.20;52.90;;;11.80;83.60;;;;;;5054403;28;20451;-67
2024/03/15 03:38:39;;;;;;;61.13;58.53;;;11.80;78.90;;;;;;5046288;28;20990;-67
2024/03/15 03:41:08;;;;;;;51.20;49.10;;;11.80;84.30;;;;;;5052496;28;20828;-67
2024/03/15 03:43:37;;;;;;;49.43;46.40;;;11.90;78.70;;;;;;5049558;28;20500;-67
2024/03/15 03:46:06;;;;;;;43.93;41.83;;;11.90;78.70;;;;;;5054542;28;20527;-67
2024/03/15 03:48:33;;;;;;;32.53;31.00;;;12.00;78.70;;;;;;5055070;28;20446;-67
2024/03/15 03:51:01;;;;;;;29.70;28.20;;;12.10;78.90;;;;;;5054448;28;20812;-67
2024/03/15 03:53:29;;;;;;;25.50;24.20;;;12.20;79.00;;;;;;5037495;28;21011;-67
2024/03/15 03:55:56;;;;;;;19.83;18.77;;;12.10;78.90;;;;;;5051294;28;20489;-67
2024/03/15 03:58:24;;;;;;;22.10;20.70;;;12.20;78.90;;;;;;5054412;28;20482;-66
2024/03/15 04:00:51;;;;;;;23.97;22.67;;;12.10;78.90;;;;;;5054174;28;20480;-67
2024/03/15 04:03:18;;;;;;;26.20;24.80;;;12.10;78.90;;;;;;5054139;28;20864;-67
2024/03/15 04:05:44;;;;;;;21.10;19.67;;;12.10;78.90;;;;;;5053753;28;20537;-67
2024/03/15 04:08:12;;;;;;;19.73;18.63;;;12.10;78.90;;;;;;5054297;28;20450;-67
2024/03/15 04:10:39;;;;;;;17.80;16.50;;;12.10;78.90;;;;;;5047458;28;20459;-67
2024/03/15 04:13:06;;;;;;;19.20;18.10;;;12.20;78.90;;;;;;5044587;28;20474;-67
2024/03/15 04:15:33;;;;;;;18.67;17.33;;;12.20;78.90;;;;;;5054378;28;20454;-67
2024/03/15 04:18:01;;;;;;;17.53;16.43;;;12.10;78.90;;;;;;5044003;28;20451;-67
2024/03/15 04:20:29;;;;;;;20.90;19.77;;;12.10;78.90;;;;;;5048028;28;20454;-67
2024/03/15 04:22:56;;;;;;;22.47;21.27;;;12.00;78.80;;;;;;5054366;28;20510;-67
2024/03/15 04:25:23;;;;;;;30.17;28.47;;;12.00;78.80;;;;;;5054232;28;20450;-67
2024/03/15 04:27:51;;;;;;;32.73;30.90;;;11.90;78.70;;;;;;5054234;28;20541;-66
2024/03/15 04:30:22;;;;;;;34.10;32.50;;;11.90;78.70;;;;;;5054294;28;20485;-67
2024/03/15 04:32:49;;;;;;;37.97;36.27;;;11.90;78.70;;;;;;5054333;28;20466;-67
2024/03/15 04:35:17;;;;;;;34.97;33.30;;;11.90;78.70;;;;;;5054025;28;20450;-67
2024/03/15 04:37:44;;;;;;;34.30;32.60;;;12.00;78.80;;;;;;5045760;28;20451;-67
2024/03/15 04:40:13;;;;;;;23.50;22.00;;;12.10;78.90;;;;;;5054207;28;20482;-67
2024/03/15 04:42:40;;;;;;;19.17;17.97;;;12.20;78.90;;;;;;5045856;28;20466;-67
2024/03/15 04:45:09;;;;;;;15.93;14.40;;;12.30;79.00;;;;;;5053523;28;20461;-67
2024/03/15 04:47:37;;;;;;;13.00;10.50;;;12.40;79.00;;;;;;5054011;28;20480;-67
2024/03/15 04:50:05;;;;;;;10.20;9.30;;;12.50;78.00;;;;;;5043706;28;20943;-67
2024/03/15 04:52:33;;;;;;;10.77;7.67;;;12.60;74.50;;;;;;5048109;28;20824;-67
2024/03/15 04:55:00;;;;;;;8.47;7.13;;;12.70;72.20;;;;;;5045699;28;20460;-67
2024/03/15 04:57:27;;;;;;;9.90;6.43;;;12.70;71.60;;;;;;5048587;28;20550;-67
2024/03/15 04:59:54;;;;;;;9.57;5.80;;;12.80;71.60;;;;;;5049833;28;20486;-67
2024/03/15 05:02:21;;;;;;;6.67;4.37;;;12.90;71.10;;;;;;5038633;28;20456;-66
2024/03/15 05:04:49;;;;;;;8.67;4.80;;;12.90;68.80;;;;;;5047775;28;20447;-67
2024/03/15 05:07:16;;;;;;;8.73;4.20;;;13.00;65.20;;;;;;5048083;28;20825;-67
2024/03/15 05:09:43;;;;;;;7.60;4.13;;;13.00;63.80;;;;;;5050143;28;20450;-67
2024/03/15 05:12:10;;;;;;;7.13;4.20;;;13.00;64.60;;;;;;5047607;28;20649;-67
2024/03/15 05:14:37;;;;;;;8.40;4.70;;;12.90;65.40;;;;;;5057663;28;20478;-67
2024/03/15 05:17:03;;;;;;;7.40;5.47;;;12.80;65.60;;;;;;5048855;28;20446;-67
2024/03/15 05:19:30;;;;;;;6.60;4.67;;;12.80;64.10;;;;;;5057585;28;20481;-67
2024/03/15 05:21:58;;;;;;;7.10;4.77;;;12.80;64.20;;;;;;5056290;28;20450;-67
2024/03/15 05:24:26;;;;;;;8.90;5.00;;;12.80;65.20;;;;;;5050552;28;20536;-67
2024/03/15 05:26:53;;;;;;;10.27;4.60;;;12.80;68.00;;;;;;5056909;28;20458;-67
2024/03/15 05:29:20;;;;;;;7.40;5.93;;;12.70;65.10;;;;;;5053066;28;20530;-67
2024/03/15 05:31:47;;;;;;;6.40;4.40;;;12.70;68.50;;;;;;5037452;28;20879;-67
2024/03/15 05:34:15;;;;;;;9.40;5.20;;;12.80;67.10;;;;;;5048616;28;20470;-67
2024/03/15 05:36:42;;;;;;;7.90;5.00;;;12.80;64.00;;;;;;5049463;28;20479;-67
2024/03/15 05:39:10;;;;;;;9.20;4.80;;;12.80;67.00;;;;;;5055997;28;20482;-67
2024/03/15 05:41:38;;;;;;;8.90;5.37;;;12.80;63.90;;;;;;5057051;28;20446;-67
2024/03/15 05:44:05;;;;;;;9.67;6.47;;;12.80;64.20;;;;;;5056498;28;20474;-67
2024/03/15 05:46:32;;;;;;;7.63;5.67;;;12.80;65.10;;;;;;5056464;28;20446;-67
2024/03/15 05:49:00;;;;;;;11.03;5.80;;;12.80;67.90;;;;;;5056726;28;20451;-67
2024/03/15 05:51:27;;;;;;;7.40;4.70;;;12.80;65.30;;;;;;5056713;28;20456;-68
2024/03/15 05:53:54;;;;;;;7.10;5.33;;;12.80;65.30;;;;;;5056238;28;20474;-67
2024/03/15 05:56:23;;;;;;;7.83;4.90;;;12.80;67.00;;;;;;5051989;28;20958;-67
2024/03/15 05:58:50;;;;;;;6.73;4.80;;;12.80;66.00;;;;;;5053246;28;20864;-64
2024/03/15 06:01:17;;;;;;;7.50;4.60;;;12.80;63.70;;;;;;5056445;28;20450;-66
2024/03/15 06:03:44;;;;;;;6.67;4.77;;;12.90;63.90;;;;;;5056280;28;20469;-66
2024/03/15 06:06:11;;;;;;;7.07;5.27;;;12.90;64.30;;;;;;5053097;28;20463;-67
2024/03/15 06:08:37;;;;;;;10.50;5.60;;;12.90;63.90;;;;;;5051111;28;20482;-68
2024/03/15 06:11:04;;;;;;;8.73;7.30;;;12.90;63.90;;;;;;5056515;28;21032;-66
2024/03/15 06:13:31;;;;;;;11.50;5.73;;;13.00;64.70;;;;;;5038740;28;20535;-65
2024/03/15 06:15:58;;;;;;;9.90;5.53;;;13.00;63.80;;;;;;5033652;28;20485;-63
2024/03/15 06:18:25;;;;;;;6.70;5.23;;;13.10;63.80;;;;;;5035631;28;20451;-64
2024/03/15 06:20:52;;;;;;;7.57;5.40;;;13.10;63.80;;;;;;5041445;28;20539;-65
2024/03/15 06:23:20;;;;;;;7.47;5.40;;;13.10;63.80;;;;;;5055960;28;20477;-65
2024/03/15 06:25:47;;;;;;;7.90;5.83;;;13.20;63.90;;;;;;5047881;28;20451;-64
2024/03/15 06:28:14;;;;;;;7.93;5.13;;;13.20;63.90;;;;;;5052549;28;20907;-65
2024/03/15 06:30:45;;;;;;;9.73;4.73;;;13.20;64.80;;;;;;5040584;28;20502;-65
2024/03/15 06:33:12;;;;;;;10.10;4.97;;;13.30;64.80;;;;;;5051833;28;20513;-65
2024/03/15 06:35:39;;;;;;;7.57;4.77;;;13.30;64.00;;;;;;5043475;28;20523;-64
2024/03/15 06:38:10;;;;;;;7.03;4.87;;;13.30;64.00;;;;;;5051196;28;20461;-65
2024/03/15 06:40:56;;;;;;;7.53;5.00;;;13.40;64.10;;;;;;5042631;28;20484;-65
2024/03/15 06:43:35;;;;;;;10.17;5.50;;;13.40;64.10;;;;;;5045103;28;20479;-65
2024/03/15 06:46:08;;;;;;;7.60;5.53;;;13.50;64.20;;;;;;5032360;28;20682;-63
2024/03/15 06:48:44;;;;;;;6.63;5.10;;;13.60;64.30;;;;;;5050672;28;20457;-64
2024/03/15 06:53:57;;;;;;;10.33;5.10;;;13.50;64.20;;;;;;5055631;28;21019;-65
2024/03/15 06:56:24;;;;;;;7.40;4.90;;;13.50;64.20;;;;;;5055035;28;20451;-64
2024/03/15 06:58:51;;;;;;;8.00;5.90;;;13.60;64.30;;;;;;5054773;28;20456;-65
2024/03/15 07:01:18;;;;;;;8.40;6.17;;;13.60;64.30;;;;;;5055095;28;20460;-65
2024/03/15 07:03:45;;;;;;;10.10;5.20;;;13.70;64.40;;;;;;5054705;28;20900;-65
2024/03/15 07:06:11;;;;;;;9.90;5.23;;;13.70;64.40;;;;;;5051567;28;20461;-65
2024/03/15 07:08:39;;;;;;;8.23;4.37;;;13.80;64.40;;;;;;5041571;28;20456;-65
2024/03/15 07:11:07;;;;;;;8.43;5.20;;;13.80;64.40;;;;;;5044492;28;20537;-65
2024/03/15 07:13:35;;;;;;;9.90;4.60;;;13.80;64.40;;;;;;5049332;28;20470;-65
2024/03/15 07:16:02;;;;;;;10.13;5.10;;;13.80;64.40;;;;;;5054710;28;20476;-64
2024/03/15 07:18:29;;;;;;;9.97;5.23;;;13.80;64.40;;;;;;5054184;28;20455;-65
2024/03/15 07:20:56;;;;;;;8.40;5.63;;;13.70;64.40;;;;;;5053705;28;20868;-66
2024/03/15 07:23:25;;;;;;;22.23;20.90;;;13.60;69.10;;;;;;5049717;28;20514;-64
2024/03/15 07:25:52;;;;;;;66.20;63.07;;;13.20;98.90;;;;;;5043244;28;20450;-64
2024/03/15 07:28:21;;;;;;;281.67;272.87;;;13.00;92.10;;;;;;5054776;28;20452;-64
2024/03/15 07:30:48;;;;;;;475.33;460.80;;;12.90;92.20;;;;;;5054147;28;20478;-64
2024/03/15 07:33:17;;;;;;;538.50;520.87;;;12.80;92.10;;;;;;5042627;28;21002;-64
2024/03/15 07:35:46;;;;;;;684.97;657.77;;;12.70;92.10;;;;;;5050064;28;20508;-65
2024/03/15 07:38:13;;;;;;;617.13;595.03;;;12.70;95.60;;;;;;5051248;28;20877;-64
2024/03/15 07:40:40;;;;;;;648.80;624.03;;;12.80;92.10;;;;;;5041494;28;20486;-64
2024/03/15 07:43:08;;;;;;;675.50;648.10;;;12.70;92.10;;;;;;5051495;28;20477;-65
2024/03/15 07:45:35;;;;;;;623.70;600.47;;;12.70;92.80;;;;;;5050448;28;20446;-64
2024/03/15 07:48:02;;;;;;;750.93;718.03;;;12.80;92.10;;;;;;5033369;28;20985;-65
2024/03/15 07:50:30;;;;;;;711.53;681.03;;;12.80;95.90;;;;;;5047128;28;20454;-63
2024/03/15 07:52:57;;;;;;;666.17;639.87;;;12.80;95.50;;;;;;5042928;28;21069;-64
2024/03/15 07:55:24;;;;;;;756.60;723.60;;;12.70;95.30;;;;;;5040575;28;20455;-65
2024/03/15 07:57:51;;;;;;;669.27;643.17;;;12.70;93.90;;;;;;5048375;28;20446;-64
2024/03/15 08:00:18;;;;;;;711.40;682.70;;;12.70;93.10;;;;;;5044148;28;21033;-65
2024/03/15 08:02:45;;;;;;;627.20;603.77;;;12.70;95.60;;;;;;5052344;28;20945;-65
2024/03/15 08:05:13;;;;;;;701.37;672.03;;;12.80;96.10;;;;;;5044868;28;20458;-66
2024/03/15 08:07:41;;;;;;;684.40;656.13;;;12.80;98.30;;;;;;5046927;28;20477;-65
2024/03/15 08:10:10;;;;;;;667.97;641.03;;;12.80;98.80;;;;;;5053309;28;20450;-66
2024/03/15 08:12:39;;;;;;;687.47;658.67;;;12.90;98.30;;;;;;5054242;28;20466;-66
2024/03/15 08:15:07;;;;;;;698.53;668.83;;;13.00;96.30;;;;;;5036192;28;20455;-66
2024/03/15 08:17:35;;;;;;;553.40;532.40;;;13.20;98.60;;;;;;5053571;28;20508;-66
2024/03/15 08:20:03;;;;;;;438.70;422.80;;;13.20;95.60;;;;;;5044212;28;20588;-69
2024/03/15 08:22:30;;;;;;;486.30;468.45;;;13.40;92.40;;;;;;5039476;28;20478;-66
2024/03/15 08:24:58;;;;;;;308.77;296.73;;;13.50;92.40;;;;;;5053872;28;20366;-66
2024/03/15 08:27:29;;;;;;;268.93;259.50;;;13.60;92.40;;;;;;5053898;28;20245;-65
2024/03/15 08:29:57;;;;;;;259.47;249.47;;;13.70;92.80;;;;;;5034591;28;20448;-65
2024/03/15 08:32:24;;;;;;;163.30;157.60;;;13.90;92.50;;;;;;5048335;28;20458;-66
2024/03/15 08:34:51;;;;;;;123.83;119.30;;;14.00;92.60;;;;;;5041995;28;20458;-64
2024/03/15 08:37:18;;;;;;;125.73;121.13;;;14.10;84.10;;;;;;5053637;28;20897;-66
2024/03/15 08:39:45;;;;;;;51.20;48.70;;;14.30;86.10;;;;;;5053918;28;20527;-66
2024/03/15 08:42:12;;;;;;;71.27;68.27;;;14.50;81.10;;;;;;5045172;28;20557;-65
2024/03/15 08:44:39;;;;;;;32.50;30.80;;;14.70;81.20;;;;;;5052814;28;20477;-65
2024/03/15 08:47:06;;;;;;;42.63;40.33;;;14.80;81.30;;;;;;5049198;28;20449;-66
2024/03/15 08:49:35;;;;;;;44.83;42.83;;;15.00;81.50;;;;;;5058067;28;20545;-64
2024/03/15 08:52:02;;;;;;;14.67;13.43;;;15.10;81.60;;;;;;5057880;28;20446;-65
2024/03/15 08:54:29;;;;;;;10.93;9.90;;;15.20;73.90;;;;;;5052301;28;20474;-66
2024/03/15 08:56:57;;;;;;;8.63;6.07;;;15.20;70.50;;;;;;5043025;28;20466;-65
2024/03/15 08:59:24;;;;;;;11.20;4.40;;;15.20;65.80;;;;;;5042034;28;20488;-65
2024/03/15 09:01:52;;;;;;;6.73;5.30;;;15.30;65.80;;;;;;5057624;28;20458;-65
2024/03/15 09:04:22;;;;;;;12.70;5.47;;;15.40;65.90;;;;;;5050358;28;20527;-66
2024/03/15 09:06:51;;;;;;;8.97;4.20;;;15.60;66.10;;;;;;5049949;28;20450;-65
2024/03/15 09:09:21;;;;;;;9.67;4.33;;;15.80;66.30;;;;;;5038230;28;20459;-66
2024/03/15 09:11:49;;;;;;;7.37;3.83;;;15.90;66.40;;;;;;5054197;28;20453;-65
2024/03/15 09:14:18;;;;;;;10.50;4.20;;;16.00;66.30;;;;;;5045807;28;20501;-65
2024/03/15 09:16:50;;;;;;;7.40;3.23;;;16.20;61.70;;;;;;5053216;28;20459;-66
2024/03/15 09:19:17;;;;;;;7.10;3.80;;;16.40;58.60;;;;;;5054163;28;20463;-65
2024/03/15 09:21:44;;;;;;;6.90;4.00;;;16.20;62.60;;;;;;5044664;28;20564;-66
2024/03/15 09:24:13;;;;;;;6.57;2.90;;;16.50;66.70;;;;;;5057314;28;20470;-65
2024/03/15 09:26:40;;;;;;;8.50;3.03;;;16.40;53.90;;;;;;5056717;28;20828;-65
2024/03/15 09:29:07;;;;;;;7.70;2.80;;;16.50;50.00;;;;;;5049135;28;20457;-65
2024/03/15 09:31:35;;;;;;;8.33;2.97;;;16.70;50.10;;;;;;5057020;28;20450;-66
2024/03/15 09:34:02;;;;;;;7.00;2.53;;;16.90;51.20;;;;;;5057006;28;20485;-66
2024/03/15 09:36:32;;;;;;;4.83;2.40;;;17.00;50.40;;;;;;5048046;28;20456;-66
2024/03/15 09:38:59;;;;;;;6.00;2.70;;;16.90;50.30;;;;;;5053988;28;20450;-65
2024/03/15 09:41:26;;;;;;;8.40;3.20;;;17.10;50.50;;;;;;5050592;28;21074;-65
2024/03/15 09:43:54;;;;;;;6.93;2.20;;;17.40;50.70;;;;;;5056604;28;20470;-65
2024/03/15 09:46:21;;;;;;;6.47;2.60;;;17.50;42.00;;;;;;5049321;28;20575;-65
2024/03/15 09:48:50;;;;;;;7.43;2.90;;;17.70;42.20;;;;;;5048398;28;20941;-66
2024/03/15 09:51:17;;;;;;;8.60;2.20;;;18.10;43.50;;;;;;5056630;28;20449;-65
2024/03/15 09:53:45;;;;;;;6.50;2.10;;;18.60;35.00;;;;;;5046988;28;20496;-66
2024/03/15 09:56:14;;;;;;;5.83;2.13;;;19.00;34.30;;;;;;5056128;28;20454;-66
2024/03/15 09:58:42;;;;;;;8.27;2.33;;;19.40;34.70;;;;;;5056775;28;20982;-66
2024/03/15 10:01:09;;;;;;;6.30;2.00;;;19.30;26.60;;;;;;5056511;28;20643;-65
2024/03/15 10:03:35;;;;;;;6.53;1.73;;;19.70;26.80;;;;;;5056197;28;21011;-66
2024/03/15 10:06:02;;;;;;;6.43;2.20;;;19.40;26.30;;;;;;5053941;28;20446;-66
2024/03/15 10:08:29;;;;;;;7.23;2.10;;;19.00;25.10;;;;;;5041410;28;20448;-65
2024/03/15 10:10:57;;;;;;;6.63;2.37;;;18.70;25.90;;;;;;5050402;28;20451;-65
2024/03/15 10:13:24;;;;;;;6.30;2.43;;;18.10;25.70;;;;;;5036555;28;20846;-66
2024/03/15 10:15:51;;;;;;;11.87;2.10;;;17.70;25.40;;;;;;5044711;28;20626;-65
2024/03/15 10:18:18;;;;;;;5.97;2.60;;;17.70;28.40;;;;;;5057022;28;20864;-65
2024/03/15 10:20:46;;;;;;;5.33;1.90;;;17.60;26.00;;;;;;5055880;28;20480;-66
2024/03/15 10:23:13;;;;;;;22.57;2.60;;;17.40;25.20;;;;;;5053254;28;20546;-66
2024/03/15 10:25:40;;;;;;;4.90;1.73;;;17.20;28.90;;;;;;5042789;28;20450;-66
2024/03/15 10:28:08;;;;;;;8.07;1.73;;;17.10;25.70;;;;;;5035654;28;20459;-66
2024/03/15 10:30:36;;;;;;;7.83;2.13;;;17.20;32.60;;;;;;5036372;28;20455;-67
2024/03/15 10:33:03;;;;;;;5.30;1.63;;;17.20;25.00;;;;;;5035886;28;21125;-66
2024/03/15 10:35:30;;;;;;;5.47;1.93;;;17.50;32.90;;;;;;5052458;28;21017;-65
2024/03/15 10:37:58;;;;;;;4.67;1.60;;;17.70;30.60;;;;;;5052337;28;20447;-67
2024/03/15 10:40:25;;;;;;;5.30;1.83;;;17.70;25.40;;;;;;5037128;28;20561;-67
2024/03/15 10:42:52;;;;;;;10.90;2.13;;;17.90;25.50;;;;;;5035344;28;20467;-67
2024/03/15 10:45:19;;;;;;;6.40;2.33;;;18.10;25.70;;;;;;5051790;28;20447;-66
2024/03/15 10:47:46;;;;;;;5.60;2.00;;;18.10;24.20;;;;;;5051842;28;20829;-66
2024/03/15 10:50:13;;;;;;;5.97;2.10;;;18.50;21.80;;;;;;5052212;28;20457;-68
2024/03/15 10:52:41;;;;;;;7.23;2.10;;;18.60;24.60;;;;;;5035363;28;20463;-66
2024/03/15 10:55:11;;;;;;;6.80;1.90;;;18.20;19.10;;;;;;5035787;28;20447;-65
2024/03/15 10:57:38;;;;;;;5.23;2.23;;;18.00;18.40;;;;;;5051797;28;20834;-66
2024/03/15 11:00:14;;;;;;;9.13;2.40;;;18.20;22.90;;;;;;5051686;28;20924;-67
2024/03/15 11:02:41;;;;;;;6.40;2.20;;;18.40;18.60;;;;;;5036953;28;20463;-67
2024/03/15 11:05:09;;;;;;;7.93;3.05;;;19.30;19.20;;;;;;5034465;28;20959;-67
2024/03/15 11:07:36;;;;;;;7.78;2.50;;;19.80;19.60;;;;;;5050485;28;20530;-66
2024/03/15 11:10:09;;;;;;;7.30;2.27;;;19.70;12.10;;;;;;5051738;28;20594;-65
2024/03/15 11:12:39;;;;;;;5.97;1.67;;;19.30;11.70;;;;;;5019453;28;20506;-64
2024/03/15 11:15:08;;;;;;;5.43;1.63;;;18.50;14.70;;;;;;5035326;28;20833;-66
2024/03/15 11:17:35;;;;;;;5.50;1.20;;;17.60;18.00;;;;;;5051604;28;20450;-65
2024/03/15 11:20:05;;;;;;;7.53;1.97;;;17.10;17.70;;;;;;5051794;28;20451;-66
2024/03/15 11:22:32;;;;;;;6.00;1.90;;;17.10;25.00;;;;;;5035404;28;20443;-65
2024/03/15 11:24:59;;;;;;;5.13;1.70;;;17.10;25.60;;;;;;5035168;28;20445;-65
2024/03/15 11:27:27;;;;;;;9.60;1.47;;;17.00;24.90;;;;;;5051094;28;20450;-65
2024/03/15 11:29:56;;;;;;;6.57;1.37;;;16.70;24.60;;;;;;5051301;28;20994;-64
2024/03/15 11:32:22;;;;;;;9.27;1.70;;;17.00;24.90;;;;;;5035728;28;20443;-67
2024/03/15 11:34:49;;;;;;;9.90;2.33;;;17.70;25.40;;;;;;5035485;28;20439;-64
2024/03/15 11:37:22;;;;;;;6.03;2.20;;;18.70;24.20;;;;;;5023728;28;20452;-66
2024/03/15 11:39:57;;;;;;;6.40;1.50;;;19.60;19.40;;;;;;5047855;28;20873;-64
2024/03/15 11:42:24;;;;;;;5.90;1.90;;;20.90;12.90;;;;;;5057345;28;20857;-65
2024/03/15 11:44:51;;;;;;;4.50;1.50;;;20.90;5.20;;;;;;5054609;28;20450;-65
2024/03/15 11:47:18;;;;;;;5.60;1.87;;;21.40;5.50;;;;;;5046082;28;20454;-65
2024/03/15 11:49:45;;;;;;;7.60;1.40;;;21.40;1.00;;;;;;5047040;28;20881;-66
2024/03/15 11:52:12;;;;;;;5.67;1.90;;;20.70;2.90;;;;;;5034454;28;20478;-66
2024/03/15 11:54:39;;;;;;;5.30;1.90;;;21.10;5.30;;;;;;5042685;28;20451;-67
2024/03/15 11:57:06;;;;;;;7.97;2.57;;;21.70;1.00;;;;;;5034166;28;20988;-67
2024/03/15 11:59:34;;;;;;;7.00;1.77;;;22.00;1.00;;;;;;5051133;28;20459;-66
2024/03/15 12:02:01;;;;;;;6.20;1.60;;;21.40;1.00;;;;;;5051004;28;20490;-67
2024/03/15 12:04:32;;;;;;;5.23;1.63;;;21.90;1.00;;;;;;5034361;28;20467;-67
2024/03/15 12:06:59;;;;;;;7.00;2.00;;;21.80;1.00;;;;;;5034664;28;20474;-65
2024/03/15 12:09:25;;;;;;;6.13;2.43;;;22.30;1.00;;;;;;5051248;28;20447;-66
2024/03/15 12:11:54;;;;;;;7.83;2.47;;;22.20;1.00;;;;;;5050973;28;20450;-67
2024/03/15 12:14:20;;;;;;;7.77;2.27;;;22.70;1.00;;;;;;5034365;28;20459;-67
2024/03/15 12:16:47;;;;;;;5.97;2.13;;;22.30;1.00;;;;;;5033430;28;20458;-66
2024/03/15 12:19:14;;;;;;;10.57;2.37;;;21.20;1.00;;;;;;5034251;28;20455;-66
2024/03/15 12:21:41;;;;;;;8.93;2.13;;;20.70;1.00;;;;;;5051194;28;20479;-67
2024/03/15 12:24:08;;;;;;;7.20;2.00;;;20.30;4.70;;;;;;5050565;28;20467;-66
2024/03/15 12:26:35;;;;;;;6.20;1.87;;;20.20;4.70;;;;;;5040143;28;20610;-66
2024/03/15 12:29:02;;;;;;;6.90;2.43;;;20.10;4.60;;;;;;5053649;28;20458;-66
2024/03/15 12:31:29;;;;;;;8.90;2.27;;;19.90;4.50;;;;;;5054179;28;20450;-66
2024/03/15 12:33:56;;;;;;;10.43;2.57;;;19.60;4.20;;;;;;5053563;28;20485;-66